createdAt,value
2023-01-26T00:01:23.531Z,29.4
2023-01-26T00:03:24.692Z,32.6
2023-01-26T00:05:28.976Z,32.3
2023-01-26T00:07:30.049Z,30.8
2023-01-26T00:09:31.135Z,29
2023-01-26T00:10:33.299Z,36.6
2023-01-26T00:12:34.361Z,28.8
2023-01-26T00:14:35.424Z,30.1
2023-01-26T00:16:36.492Z,29.7
2023-01-26T00:20:41.924Z,32.4
2023-01-26T00:22:42.971Z,27.9
2023-01-26T00:24:44.067Z,32.7
2023-01-26T00:28:46.182Z,29.8
2023-01-26T00:34:52.669Z,28.1
2023-01-26T00:36:53.738Z,27.4
2023-01-26T00:38:54.782Z,29.1
2023-01-26T00:40:55.878Z,27.6
2023-01-26T00:42:56.947Z,33.5
2023-01-26T00:47:02.324Z,33.2
2023-01-26T00:49:03.384Z,28.1
2023-01-26T00:51:04.481Z,29.3
2023-01-26T00:53:05.547Z,32.6
2023-01-26T00:55:06.621Z,31
2023-01-26T00:57:07.668Z,30
2023-01-26T01:01:13.154Z,31.2
2023-01-26T01:03:14.173Z,26.5
2023-01-26T01:05:15.249Z,30.2
2023-01-26T01:06:17.425Z,30.2
2023-01-26T01:08:18.486Z,33.5
2023-01-26T01:12:20.663Z,31.4
2023-01-26T01:14:24.986Z,32.4
2023-01-26T01:16:26.171Z,28.5
2023-01-26T01:24:30.380Z,30
2023-01-26T01:26:31.420Z,33
2023-01-26T01:30:36.861Z,27
2023-01-26T01:32:37.932Z,30.5
2023-01-26T01:34:38.987Z,27.1
2023-01-26T01:36:40.077Z,26.9
2023-01-26T01:38:41.142Z,28
2023-01-26T01:40:42.213Z,28
2023-01-26T01:42:46.563Z,30.3
2023-01-26T01:44:47.606Z,29.8
2023-01-26T01:46:48.810Z,29.1
2023-01-26T01:48:49.788Z,24.9
2023-01-26T01:50:50.843Z,22.6
2023-01-26T01:52:51.925Z,24.9
2023-01-26T01:54:52.983Z,24.4
2023-01-26T01:56:57.322Z,25.7
2023-01-26T01:58:58.429Z,27.3
2023-01-26T02:00:59.514Z,25.1
2023-01-26T02:04:02.732Z,25.5
2023-01-26T02:12:10.287Z,26.4
2023-01-26T02:14:11.378Z,24.4
2023-01-26T02:16:12.509Z,28.4
2023-01-26T02:18:13.551Z,24.6
2023-01-26T02:20:14.603Z,25
2023-01-26T02:22:15.678Z,22.5
2023-01-26T02:24:20.182Z,24.1
2023-01-26T02:26:21.101Z,26.4
2023-01-26T02:28:22.195Z,22
2023-01-26T02:30:23.298Z,22.5
2023-01-26T02:32:24.352Z,21.4
2023-01-26T02:34:25.446Z,20.5
2023-01-26T02:36:26.533Z,21.3
2023-01-26T02:38:30.887Z,21.9
2023-01-26T02:40:31.977Z,24.2
2023-01-26T02:42:33.048Z,24.5
2023-01-26T02:44:34.218Z,23
2023-01-26T02:46:35.271Z,20.8
2023-01-26T02:48:36.301Z,22.3
2023-01-26T02:50:37.385Z,21
2023-01-26T02:52:41.721Z,22.8
2023-01-26T02:59:00.264Z,24
2023-01-26T03:01:01.335Z,20.1
2023-01-26T03:03:02.428Z,22.4
2023-01-26T03:05:06.730Z,24.2
2023-01-26T03:07:07.816Z,21
2023-01-26T03:09:08.889Z,22
2023-01-26T03:11:09.998Z,23.5
2023-01-26T03:13:11.088Z,23.2
2023-01-26T03:15:12.160Z,22.7
2023-01-26T03:19:17.611Z,21.5
2023-01-26T03:21:18.697Z,22.1
2023-01-26T03:23:19.765Z,21.7
2023-01-26T03:25:20.873Z,19
2023-01-26T03:27:21.941Z,23.5
2023-01-26T03:29:23.043Z,22
2023-01-26T03:39:31.747Z,21.1
2023-01-26T03:47:39.350Z,19.6
2023-01-26T03:52:43.694Z,19.7
2023-01-26T03:54:44.787Z,20.6
2023-01-26T03:56:45.884Z,16.9
2023-01-26T03:58:46.967Z,18.9
2023-01-26T04:00:51.355Z,16.9
2023-01-26T04:02:52.408Z,19.4
2023-01-26T04:04:53.484Z,18
2023-01-26T04:06:54.586Z,20.2
2023-01-26T04:10:56.794Z,17
2023-01-26T04:12:57.854Z,17.8
2023-01-26T04:15:02.215Z,15.5
2023-01-26T04:17:03.283Z,14.7
2023-01-26T04:19:04.380Z,17.1
2023-01-26T04:23:06.553Z,15.4
2023-01-26T04:25:07.631Z,11.1
2023-01-26T04:27:08.721Z,14.1
2023-01-26T04:29:13.072Z,16.6
2023-01-26T04:31:14.232Z,22.3
2023-01-26T04:33:15.263Z,15.7
2023-01-26T04:35:16.364Z,15.9
2023-01-26T04:37:17.454Z,15.1
2023-01-26T04:39:18.552Z,15.2
2023-01-26T04:41:19.622Z,13.9
2023-01-26T04:43:23.958Z,16.6
2023-01-26T04:45:25.066Z,15.3
2023-01-26T04:47:28.320Z,13.7
2023-01-26T04:48:28.338Z,16
2023-01-26T04:50:29.427Z,15.1
2023-01-26T04:54:31.603Z,12.1
2023-01-26T04:56:35.943Z,12.9
2023-01-26T04:58:37.035Z,14.8
2023-01-26T05:00:38.143Z,14.6
2023-01-26T05:04:40.323Z,12.4
2023-01-26T05:06:41.415Z,13.1
2023-01-26T05:08:42.536Z,14.1
2023-01-26T05:10:46.872Z,13.3
2023-01-26T05:12:47.977Z,13.6
2023-01-26T05:14:49.051Z,11.8
2023-01-26T05:16:50.185Z,12.6
2023-01-26T05:24:59.255Z,14.8
2023-01-26T05:27:00.335Z,13.2
2023-01-26T05:29:01.466Z,14.1
2023-01-26T05:33:03.616Z,14.2
2023-01-26T05:37:05.795Z,14.7
2023-01-26T05:44:14.543Z,14.3
2023-01-26T05:46:15.707Z,12.1
2023-01-26T05:48:16.692Z,14.8
2023-01-26T05:50:17.814Z,13.7
2023-01-26T05:52:22.139Z,13.1
2023-01-26T05:54:23.274Z,14.5
2023-01-26T05:56:24.317Z,12.6
2023-01-26T05:58:25.415Z,13.8
2023-01-26T06:00:26.519Z,13.3
2023-01-26T06:02:27.697Z,12.3
2023-01-26T06:12:36.370Z,17.7
2023-01-26T06:14:37.460Z,13.1
2023-01-26T06:24:46.182Z,11.7
2023-01-26T06:26:47.301Z,14.4
2023-01-26T06:28:48.391Z,11.9
2023-01-26T06:41:25.618Z,17.3
2023-01-26T06:45:27.869Z,12.5
2023-01-26T06:47:32.208Z,14
2023-01-26T06:49:33.312Z,12.2
2023-01-26T06:51:34.406Z,12.1
2023-01-26T06:53:35.533Z,13.3
2023-01-26T06:55:36.682Z,12.1
2023-01-26T06:57:37.745Z,13.3
2023-01-26T06:59:38.849Z,20.6
2023-01-26T07:01:43.229Z,14.5
2023-01-26T07:03:44.324Z,12.6
2023-01-26T07:07:46.555Z,12.6
2023-01-26T07:09:47.672Z,13
2023-01-26T07:11:48.752Z,12.6
2023-01-26T07:13:49.856Z,15
2023-01-26T07:15:54.348Z,13
2023-01-26T07:17:55.352Z,14
2023-01-26T07:19:56.464Z,14.1
2023-01-26T07:21:57.577Z,14.9
2023-01-26T07:23:58.721Z,14.3
2023-01-26T07:25:59.774Z,15.2
2023-01-26T07:28:00.913Z,13.8
2023-01-26T07:30:05.307Z,12.7
2023-01-26T07:32:06.409Z,13.7
2023-01-26T07:34:07.501Z,12.8
2023-01-26T07:37:10.809Z,14.7
2023-01-26T07:39:11.902Z,16.8
2023-01-26T07:41:13.043Z,16.6
2023-01-26T07:43:17.357Z,16.7
2023-01-26T07:47:19.622Z,17.1
2023-01-26T07:51:21.863Z,17.1
2023-01-26T07:53:23.229Z,14.2
2023-01-26T07:57:28.439Z,18.2
2023-01-26T08:03:31.804Z,17
2023-01-26T08:05:32.981Z,19.8
2023-01-26T08:15:41.809Z,18.8
2023-01-26T08:17:43.011Z,18.1
2023-01-26T08:19:44.043Z,19.5
2023-01-26T08:21:45.159Z,18.8
2023-01-26T08:23:46.254Z,21.2
2023-01-26T08:27:51.793Z,21.6
2023-01-26T08:29:52.912Z,21.8
2023-01-26T08:32:56.222Z,21.9
2023-01-26T08:34:57.381Z,25
2023-01-26T08:36:58.455Z,23.8
2023-01-26T08:47:08.364Z,22.8
2023-01-26T08:49:09.507Z,25.5
2023-01-26T08:53:15.038Z,24.7
2023-01-26T08:55:16.161Z,25.9
2023-01-26T08:57:17.279Z,22.5
2023-01-26T08:59:18.462Z,26.2
2023-01-26T09:01:19.674Z,24.3
2023-01-26T09:05:21.869Z,26
2023-01-26T09:07:26.264Z,23.6
2023-01-26T09:09:27.423Z,24.6
2023-01-26T09:11:28.541Z,25.5
2023-01-26T09:13:29.666Z,25
2023-01-26T09:15:30.804Z,23
2023-01-26T09:17:31.930Z,24.7
2023-01-26T09:19:33.075Z,23.8
2023-01-26T09:21:37.483Z,26
2023-01-26T09:25:39.765Z,28
2023-01-26T09:26:42.039Z,23.2
2023-01-26T09:28:43.094Z,25.5
2023-01-26T09:38:52.097Z,20.7
2023-01-26T09:40:53.220Z,20.9
2023-01-26T09:42:54.387Z,21.6
2023-01-26T09:44:55.536Z,23.2
2023-01-26T09:46:56.636Z,24.7
2023-01-26T09:49:01.073Z,20.7
2023-01-26T09:51:02.234Z,24.1
2023-01-26T09:53:03.360Z,20.1
2023-01-26T09:55:04.507Z,20.2
2023-01-26T09:57:05.614Z,23
2023-01-26T09:59:06.791Z,24.7
2023-01-26T10:01:07.963Z,23.3
2023-01-26T10:03:12.354Z,27.7
2023-01-26T10:05:13.717Z,25.6
2023-01-26T10:07:14.678Z,22.8
2023-01-26T10:09:15.832Z,20.7
2023-01-26T10:11:16.972Z,22.1
2023-01-26T10:17:23.757Z,20.3
2023-01-26T10:19:24.933Z,19.6
2023-01-26T10:23:54.529Z,20.2
2023-01-26T10:25:55.686Z,22.9
2023-01-26T10:27:56.913Z,13.2
2023-01-26T10:30:01.315Z,15.1
2023-01-26T10:32:02.479Z,14.9
2023-01-26T10:34:03.695Z,11.6
2023-01-26T10:36:04.864Z,16.4
2023-01-26T10:38:06.054Z,12.5
2023-01-26T10:40:07.268Z,18.1
2023-01-26T10:42:08.465Z,12.8
2023-01-26T10:44:12.931Z,12.7
2023-01-26T10:46:14.183Z,10.5
2023-01-26T10:50:16.545Z,10.7
2023-01-26T10:52:17.756Z,11.1
2023-01-26T10:54:18.929Z,12.3
2023-01-26T10:56:20.150Z,12.2
2023-01-26T10:58:24.605Z,14.6
2023-01-26T11:00:25.814Z,11.1
2023-01-26T11:02:27.070Z,11.9
2023-01-26T11:04:28.214Z,9.6
2023-01-26T11:06:29.409Z,11.9
2023-01-26T11:08:32.166Z,11.2
2023-01-26T11:10:33.363Z,7.8
2023-01-26T11:12:37.814Z,13.8
2023-01-26T11:14:39.014Z,8.3
2023-01-26T11:16:40.248Z,9.8
2023-01-26T11:19:43.689Z,9.3
2023-01-26T11:21:44.895Z,10.4
2023-01-26T11:23:46.116Z,9.4
2023-01-26T11:25:50.598Z,7.1
2023-01-26T11:29:53.009Z,5.9
2023-01-26T11:31:54.433Z,9.4
2023-01-26T11:33:55.494Z,7.9
2023-01-26T11:40:02.398Z,4.1
2023-01-26T11:42:03.599Z,3
2023-01-26T11:52:09.676Z,5.7
2023-01-26T11:54:14.144Z,3.3
2023-01-26T11:56:15.366Z,3
2023-01-26T11:58:16.635Z,3.2
2023-01-26T12:08:25.986Z,5.4
2023-01-26T12:12:28.560Z,3.9
2023-01-26T12:13:30.681Z,5.8
2023-01-26T12:15:31.886Z,3.7
2023-01-26T12:17:33.164Z,2.3
2023-01-26T12:19:34.345Z,3.7
2023-01-26T12:21:38.818Z,3.8
2023-01-26T12:23:40.077Z,3.7
2023-01-26T12:25:41.301Z,4.1
2023-01-26T12:27:42.614Z,3.5
2023-01-26T12:29:43.709Z,10.1
2023-01-26T12:31:44.982Z,3.7
2023-01-26T12:33:46.114Z,4.6
2023-01-26T12:35:50.636Z,5.8
2023-01-26T12:37:51.823Z,4.2
2023-01-26T12:39:53.044Z,2.9
2023-01-26T12:41:54.263Z,2.6
2023-01-26T12:43:55.469Z,2.4
2023-01-26T12:45:57.434Z,3.1
2023-01-26T12:47:57.951Z,3.5
2023-01-26T12:50:02.511Z,2.7
2023-01-26T12:52:03.642Z,2.8
2023-01-26T12:54:04.864Z,1.8
2023-01-26T12:56:06.100Z,2.6
2023-01-26T13:02:09.764Z,5.4
2023-01-26T13:04:14.283Z,2
2023-01-26T13:06:15.511Z,2.5
2023-01-26T13:08:16.721Z,3.8
2023-01-26T13:09:18.980Z,2
2023-01-26T13:11:20.217Z,3.9
2023-01-26T13:13:21.402Z,1.7
2023-01-26T13:15:22.661Z,2.6
2023-01-26T13:17:27.114Z,2.2
2023-01-26T13:19:28.332Z,2.4
2023-01-26T13:21:29.597Z,2.5
2023-01-26T13:23:30.758Z,2.4
2023-01-26T13:25:31.981Z,2.2
2023-01-26T13:27:33.239Z,4.3
2023-01-26T13:31:38.934Z,1.6
2023-01-26T13:33:40.125Z,2.9
2023-01-26T13:35:41.349Z,2.1
2023-01-26T13:39:43.825Z,2.5
2023-01-26T13:43:46.258Z,2
2023-01-26T13:45:50.724Z,3.1
2023-01-26T13:53:55.632Z,1.9
2023-01-26T13:55:56.821Z,2
2023-01-26T13:57:58.050Z,2.1
2023-01-26T14:00:02.551Z,2.1
2023-01-26T14:04:05.028Z,1.7
2023-01-26T14:10:35.829Z,1.3
2023-01-26T14:16:42.790Z,1.6
2023-01-26T14:18:43.994Z,1.6
2023-01-26T14:20:45.243Z,2.7
2023-01-26T14:22:46.514Z,2.1
2023-01-26T14:24:47.713Z,1.8
2023-01-26T14:26:52.158Z,2.1
2023-01-26T14:28:53.381Z,4.9
2023-01-26T14:30:54.686Z,2.2
2023-01-26T14:32:55.819Z,1.7
2023-01-26T14:34:57.043Z,2
2023-01-26T14:36:58.273Z,1.6
2023-01-26T14:38:59.498Z,2.6
2023-01-26T14:41:03.970Z,1.9
2023-01-26T14:43:05.215Z,2.1
2023-01-26T14:45:06.420Z,1.8
2023-01-26T14:47:07.655Z,2.1
2023-01-26T14:49:08.867Z,1.6
2023-01-26T14:51:10.113Z,1.9
2023-01-26T14:53:11.295Z,2.3
2023-01-26T14:55:15.806Z,1.3
2023-01-26T14:57:16.986Z,1.9
2023-01-26T14:59:18.228Z,3
2023-01-26T15:00:20.463Z,1.5
2023-01-26T15:02:21.762Z,2.1
2023-01-26T15:04:22.909Z,1.6
2023-01-26T15:06:24.143Z,1.4
2023-01-26T15:08:28.628Z,1.8
2023-01-26T15:10:29.833Z,1.4
2023-01-26T15:12:31.042Z,1.6
2023-01-26T15:14:32.245Z,2.4
2023-01-26T15:16:33.504Z,2.9
2023-01-26T15:20:35.931Z,2.3
2023-01-26T15:26:42.848Z,3.2
2023-01-26T15:28:44.098Z,1.8
2023-01-26T15:30:45.286Z,2.6
2023-01-26T15:32:46.502Z,2.4
2023-01-26T15:34:47.720Z,2.4
2023-01-26T15:36:52.173Z,1.9
2023-01-26T15:38:53.411Z,2.5
2023-01-26T15:40:54.582Z,2.8
2023-01-26T15:42:55.809Z,3.1
2023-01-26T15:44:57.048Z,1.9
2023-01-26T15:46:58.235Z,2.3
2023-01-26T15:48:59.460Z,2.9
2023-01-26T15:51:03.907Z,1.5
2023-01-26T15:53:05.171Z,2
2023-01-26T15:55:06.371Z,1.4
2023-01-26T15:58:09.810Z,2
2023-01-26T16:00:11.039Z,2.7
2023-01-26T16:10:20.363Z,1.9
2023-01-26T16:12:32.257Z,1.4
2023-01-26T16:14:22.803Z,1.8
2023-01-26T16:16:24.007Z,1.7
2023-01-26T16:18:28.464Z,2.3
2023-01-26T16:20:29.720Z,2.8
2023-01-26T16:22:30.875Z,2.1
2023-01-26T16:24:32.127Z,2
2023-01-26T16:26:33.348Z,1.5
2023-01-26T16:28:34.536Z,1.6
2023-01-26T16:30:35.773Z,2
2023-01-26T16:32:40.201Z,1.8
2023-01-26T16:34:41.410Z,2.5
2023-01-26T16:36:42.643Z,1.6
2023-01-26T16:38:43.848Z,2.1
2023-01-26T16:40:45.020Z,2.1
2023-01-26T16:42:46.280Z,3.4
2023-01-26T16:46:51.933Z,8.5
2023-01-26T16:48:53.167Z,1.8
2023-01-26T16:50:54.408Z,1.9
2023-01-26T16:51:56.598Z,1.7
2023-01-26T16:53:57.857Z,2.7
2023-01-26T16:55:59.004Z,1.9
2023-01-26T16:58:01.796Z,2.6
2023-01-26T17:00:08.538Z,2.2
2023-01-26T17:02:07.457Z,2.7
2023-01-26T17:04:08.661Z,2.3
2023-01-26T17:06:09.831Z,1.8
2023-01-26T17:08:11.130Z,3.1
2023-01-26T17:12:13.470Z,2.5
2023-01-26T17:14:17.999Z,2.7
2023-01-26T17:16:19.256Z,2.7
2023-01-26T17:18:20.372Z,3.1
2023-01-26T17:20:21.574Z,1.3
2023-01-26T17:22:22.788Z,2
2023-01-26T17:24:24.034Z,2.5
2023-01-26T17:26:25.256Z,3
2023-01-26T17:28:29.687Z,2.8
2023-01-26T17:30:31.039Z,2.6
2023-01-26T17:32:32.083Z,2.4
2023-01-26T17:34:33.312Z,2.8
2023-01-26T17:36:34.509Z,2.4
2023-01-26T17:38:35.712Z,1.6
2023-01-26T17:46:43.828Z,3.9
2023-01-26T17:49:12.177Z,3.5
2023-01-26T17:51:13.388Z,3.4
2023-01-26T17:53:14.587Z,3.3
2023-01-26T17:55:19.042Z,4.4
2023-01-26T17:57:20.296Z,2.7
2023-01-26T18:05:25.130Z,2.9
2023-01-26T18:07:26.361Z,2.9
2023-01-26T18:09:30.799Z,4.2
2023-01-26T18:11:32.045Z,2.2
2023-01-26T18:13:33.233Z,3.7
2023-01-26T18:15:34.436Z,2.5
2023-01-26T18:17:35.678Z,3.3
2023-01-26T18:19:36.889Z,2.9
2023-01-26T18:21:38.099Z,2.9
2023-01-26T18:27:44.968Z,4
2023-01-26T18:29:46.150Z,5.3
2023-01-26T18:37:54.263Z,4.8
2023-01-26T18:39:55.430Z,2.9
2023-01-26T18:42:58.914Z,2.3
2023-01-26T18:45:00.121Z,3.3
2023-01-26T18:49:02.503Z,2.4
2023-01-26T18:51:06.949Z,5.4
2023-01-26T18:53:08.139Z,4.1
2023-01-26T18:57:10.567Z,3.9
2023-01-26T18:59:11.771Z,2.5
2023-01-26T19:01:13.056Z,2.7
2023-01-26T19:03:14.162Z,3.5
2023-01-26T19:05:18.620Z,4.1
2023-01-26T19:07:19.832Z,4.2
2023-01-26T19:09:21.028Z,2.5
2023-01-26T19:11:22.248Z,2.2
2023-01-26T19:13:23.458Z,2.9
2023-01-26T19:15:24.660Z,1.4
2023-01-26T19:17:25.894Z,1.7
2023-01-26T19:19:30.327Z,2.2
2023-01-26T19:21:33.648Z,3.2
2023-01-26T19:23:32.717Z,2.6
2023-01-26T19:25:33.897Z,2.7
2023-01-26T19:27:35.106Z,2.3
2023-01-26T19:29:36.336Z,4.1
2023-01-26T19:31:37.543Z,3.3
2023-01-26T19:33:42.013Z,6.3
2023-01-26T19:35:43.195Z,3.8
2023-01-26T19:37:44.417Z,3
2023-01-26T19:40:47.895Z,3.9
2023-01-26T19:42:49.080Z,5
2023-01-26T19:46:54.756Z,3.6
2023-01-26T19:48:55.949Z,4.4
2023-01-26T19:50:57.171Z,4.7
2023-01-26T19:52:58.349Z,7
2023-01-26T19:54:59.554Z,3.4
2023-01-26T19:57:00.801Z,2.9
2023-01-26T19:59:02.046Z,2.7
2023-01-26T20:03:07.685Z,3.2
2023-01-26T20:05:08.912Z,4.1
2023-01-26T20:07:10.103Z,3
2023-01-26T20:09:11.327Z,3.1
2023-01-26T20:11:12.527Z,5.1
2023-01-26T20:13:13.743Z,3.6
2023-01-26T20:15:18.209Z,2.8
2023-01-26T20:23:23.017Z,2.9
2023-01-26T20:25:24.211Z,4
2023-01-26T20:34:34.468Z,5.1
2023-01-26T20:36:35.659Z,3.6
2023-01-26T20:38:36.848Z,5.2
2023-01-26T20:44:43.717Z,2.6
2023-01-26T20:46:44.894Z,4.3
2023-01-26T20:52:48.457Z,3.8
2023-01-26T20:54:49.641Z,2.7
2023-01-26T20:56:54.102Z,3.6
2023-01-26T20:58:55.277Z,4.7
2023-01-26T21:00:56.440Z,3.6
2023-01-26T21:02:57.632Z,3.7
2023-01-26T21:04:58.799Z,4
2023-01-26T21:06:59.967Z,3
2023-01-26T21:09:01.149Z,3.3
2023-01-26T21:11:05.591Z,6
2023-01-26T21:13:06.796Z,4
2023-01-26T21:15:07.946Z,3.2
2023-01-26T21:17:09.140Z,3.2
2023-01-26T21:19:10.319Z,4.9
2023-01-26T21:21:11.465Z,3.7
2023-01-26T21:23:12.773Z,3.5
2023-01-26T21:25:17.075Z,4.5
2023-01-26T21:27:18.274Z,3.3
2023-01-26T21:29:19.461Z,5.3
2023-01-26T21:31:47.891Z,3.4
2023-01-26T21:33:49.068Z,3.4
2023-01-26T21:35:50.218Z,7.3
2023-01-26T21:37:54.657Z,4.3
2023-01-26T21:39:55.863Z,2.9
2023-01-26T21:41:57.044Z,3.3
2023-01-26T21:43:58.216Z,3.8
2023-01-26T21:45:59.455Z,4
2023-01-26T21:48:00.583Z,4.6
2023-01-26T21:50:01.755Z,3.6
2023-01-26T21:52:06.206Z,4.3
2023-01-26T21:54:07.381Z,5
2023-01-26T21:56:08.523Z,4.1
2023-01-26T21:58:09.721Z,14
2023-01-26T22:04:13.269Z,3.5
2023-01-26T22:08:18.870Z,3.5
2023-01-26T22:14:22.690Z,4.6
2023-01-26T22:16:23.849Z,4.3
2023-01-26T22:18:24.949Z,4.3
2023-01-26T22:20:29.417Z,4.3
2023-01-26T22:22:30.594Z,3.2
2023-01-26T22:24:31.877Z,4
2023-01-26T22:25:34.006Z,3.3
2023-01-26T22:27:35.170Z,4.1
2023-01-26T22:29:36.366Z,3.8
2023-01-26T22:31:37.556Z,3.4
2023-01-26T22:33:41.994Z,3.8
2023-01-26T22:35:43.193Z,7.8
2023-01-26T22:37:44.343Z,4.4
2023-01-26T22:39:45.587Z,4.5
2023-01-26T22:41:46.736Z,3.7
2023-01-26T22:43:47.906Z,3.9
2023-01-26T22:45:49.192Z,6.1
2023-01-26T22:47:55.083Z,4.1
2023-01-26T22:51:57.468Z,5.5
2023-01-26T22:53:58.647Z,3.7
2023-01-26T22:55:59.815Z,3.9
2023-01-26T23:02:06.627Z,5.3
2023-01-26T23:04:07.836Z,4.4
2023-01-26T23:06:08.967Z,3.5
2023-01-26T23:14:13.716Z,3.8
2023-01-26T23:16:18.215Z,4.2
2023-01-26T23:18:19.336Z,4.3
2023-01-26T23:21:22.718Z,4.2
2023-01-26T23:23:23.906Z,4.3
2023-01-26T23:25:25.128Z,3.7
2023-01-26T23:27:26.246Z,4.3
2023-01-26T23:29:30.712Z,3.5
2023-01-26T23:31:31.964Z,5
2023-01-26T23:33:33.070Z,3.8
2023-01-26T23:35:34.300Z,4.5
2023-01-26T23:37:35.430Z,5
2023-01-26T23:39:36.612Z,4.5
2023-01-26T23:41:37.831Z,5.2
2023-01-26T23:43:42.257Z,5
2023-01-26T23:45:43.427Z,6.4
2023-01-26T23:47:44.768Z,4.8
2023-01-26T23:49:45.806Z,5.2
2023-01-26T23:51:47.031Z,5.5
2023-01-26T23:57:53.781Z,5.4
